Time;durP1;ratioP1;P1;durP2;ratioP2;P2;SDS_P1;SDS_P2;PMS_P1;PMS_P2;Temp;Humidity;BMP_temperature;BMP_pressure;BME280_temperature;BME280_humidity;BME280_pressure;Samples;Min_cycle;Max_cycle;Signal;HPM_P1;HPM_P2
2022/04/24 00:01:02;;;;;;;14.70;7.38;;;;;;;;;;5054503;28;20659;-75
2022/04/24 00:03:27;;;;;;;12.23;8.10;;;;;;;;;;5054765;28;20028;-76
2022/04/24 00:05:52;;;;;;;11.90;7.97;;;;;;;;;;5053224;28;20079;-76
2022/04/24 00:08:18;;;;;;;13.40;8.68;;;;;;;;;;5054486;28;20028;-76
2022/04/24 00:10:43;;;;;;;12.50;7.93;;;;;;;;;;5053161;28;20025;-76
2022/04/24 00:13:08;;;;;;;13.40;8.05;;;;;;;;;;5054795;28;20033;-76
2022/04/24 00:15:33;;;;;;;13.23;8.57;;;;;;;;;;5053169;28;20056;-76
2022/04/24 00:17:59;;;;;;;13.63;8.35;;;;;;;;;;5054113;28;20017;-75
2022/04/24 00:20:24;;;;;;;14.07;8.23;;;;;;;;;;5054693;28;20049;-76
2022/04/24 00:22:49;;;;;;;12.38;8.18;;;;;;;;;;5054210;28;20292;-76
2022/04/24 00:25:15;;;;;;;13.68;8.48;;;;;;;;;;5052910;28;20540;-76
2022/04/24 00:27:40;;;;;;;13.50;8.25;;;;;;;;;;5052823;28;20052;-76
2022/04/24 00:30:05;;;;;;;14.00;8.10;;;;;;;;;;5052709;28;20478;-77
2022/04/24 00:32:31;;;;;;;13.38;8.57;;;;;;;;;;5053922;28;20731;-77
2022/04/24 00:34:56;;;;;;;11.52;8.45;;;;;;;;;;5052689;28;20028;-77
2022/04/24 00:37:21;;;;;;;12.07;8.65;;;;;;;;;;5054138;28;20024;-75
2022/04/24 00:39:46;;;;;;;14.07;9.20;;;;;;;;;;5052517;28;20029;-75
2022/04/24 00:42:12;;;;;;;13.60;9.13;;;;;;;;;;5053774;28;20282;-76
2022/04/24 00:44:37;;;;;;;14.10;9.00;;;;;;;;;;5053836;28;20070;-76
2022/04/24 00:47:15;;;;;;;15.05;9.48;;;;;;;;;;5054011;28;20016;-77
2022/04/24 00:49:41;;;;;;;14.10;9.05;;;;;;;;;;5052379;28;20033;-76
2022/04/24 00:52:06;;;;;;;15.20;9.77;;;;;;;;;;5053774;28;20025;-76
2022/04/24 00:54:32;;;;;;;15.85;10.13;;;;;;;;;;5053662;28;20470;-77
2022/04/24 00:56:57;;;;;;;14.90;9.60;;;;;;;;;;5052277;28;20029;-76
2022/04/24 00:59:23;;;;;;;17.00;9.63;;;;;;;;;;5054036;28;20060;-76
2022/04/24 01:01:48;;;;;;;14.52;8.98;;;;;;;;;;5052234;28;20111;-76
2022/04/24 01:04:13;;;;;;;13.32;9.15;;;;;;;;;;5053142;28;20112;-76
2022/04/24 01:06:41;;;;;;;12.98;8.93;;;;;;;;;;5053159;28;20028;-76
2022/04/24 01:09:17;;;;;;;15.00;9.82;;;;;;;;;;5053451;28;20110;-77
2022/04/24 01:11:44;;;;;;;14.88;9.73;;;;;;;;;;5053364;28;20512;-77
2022/04/24 01:14:10;;;;;;;13.75;9.52;;;;;;;;;;5053456;28;20068;-76
2022/04/24 01:16:35;;;;;;;15.05;8.35;;;;;;;;;;5052066;28;20049;-76
2022/04/24 01:19:01;;;;;;;15.48;9.18;;;;;;;;;;5053181;28;20025;-77
2022/04/24 01:21:26;;;;;;;13.90;9.05;;;;;;;;;;5051969;28;20535;-77
2022/04/24 01:23:52;;;;;;;18.83;9.48;;;;;;;;;;5053231;28;20494;-77
2022/04/24 01:26:17;;;;;;;13.52;8.90;;;;;;;;;;5053126;28;20029;-77
2022/04/24 01:28:42;;;;;;;12.95;8.77;;;;;;;;;;5053344;28;20024;-76
2022/04/24 01:31:08;;;;;;;13.80;9.05;;;;;;;;;;5053344;28;20029;-76
2022/04/24 01:33:33;;;;;;;14.52;8.80;;;;;;;;;;5053178;28;20025;-76
2022/04/24 01:35:58;;;;;;;15.32;8.75;;;;;;;;;;5053323;28;20016;-76
2022/04/24 01:38:24;;;;;;;14.52;9.23;;;;;;;;;;5053056;28;20028;-77
2022/04/24 01:40:49;;;;;;;15.38;9.43;;;;;;;;;;5053026;28;20056;-76
2022/04/24 01:43:16;;;;;;;13.25;8.93;;;;;;;;;;5052971;28;20055;-76
2022/04/24 01:45:41;;;;;;;14.38;9.40;;;;;;;;;;5051692;28;20028;-76
2022/04/24 01:48:07;;;;;;;15.13;9.32;;;;;;;;;;5052934;28;20368;-76
2022/04/24 01:50:32;;;;;;;12.90;8.65;;;;;;;;;;5052907;28;20020;-76
2022/04/24 01:52:58;;;;;;;15.90;9.30;;;;;;;;;;5053189;28;20135;-76
2022/04/24 01:55:23;;;;;;;14.87;9.77;;;;;;;;;;5051602;28;20254;-77
2022/04/24 01:57:48;;;;;;;13.30;9.23;;;;;;;;;;5052953;28;20288;-76
2022/04/24 02:00:14;;;;;;;14.37;9.43;;;;;;;;;;5052701;28;20266;-77
2022/04/24 02:02:39;;;;;;;13.00;8.88;;;;;;;;;;5051443;28;20266;-77
2022/04/24 02:05:05;;;;;;;13.40;8.43;;;;;;;;;;5051518;28;20025;-76
2022/04/24 02:07:30;;;;;;;13.05;9.63;;;;;;;;;;5052891;28;20697;-77
2022/04/24 02:09:55;;;;;;;12.80;9.00;;;;;;;;;;5052700;28;20032;-77
2022/04/24 02:12:20;;;;;;;15.18;8.73;;;;;;;;;;5051459;28;20036;-76
2022/04/24 02:14:46;;;;;;;13.30;8.57;;;;;;;;;;5051260;28;20085;-76
2022/04/24 02:17:11;;;;;;;14.13;9.45;;;;;;;;;;5053826;28;20344;-77
2022/04/24 02:19:37;;;;;;;14.97;9.40;;;;;;;;;;5056763;28;20028;-76
2022/04/24 02:22:02;;;;;;;13.90;9.65;;;;;;;;;;5056616;28;20278;-77
2022/04/24 02:24:28;;;;;;;15.07;9.48;;;;;;;;;;5056794;28;20075;-77
2022/04/24 02:26:53;;;;;;;13.23;8.43;;;;;;;;;;5056682;28;20079;-77
2022/04/24 02:29:19;;;;;;;13.90;9.23;;;;;;;;;;5056608;28;20029;-77
2022/04/24 02:31:44;;;;;;;13.35;9.60;;;;;;;;;;5056346;28;20020;-76
2022/04/24 02:34:09;;;;;;;14.27;9.57;;;;;;;;;;5056912;28;20017;-76
2022/04/24 02:36:34;;;;;;;14.80;9.73;;;;;;;;;;5054979;28;20115;-76
2022/04/24 02:39:00;;;;;;;14.77;9.02;;;;;;;;;;5054960;28;20037;-76
2022/04/24 02:41:26;;;;;;;15.13;9.38;;;;;;;;;;5056062;28;20029;-75
2022/04/24 02:43:51;;;;;;;13.88;9.18;;;;;;;;;;5054976;28;20546;-76
2022/04/24 02:46:16;;;;;;;13.18;9.15;;;;;;;;;;5056799;28;20028;-76
2022/04/24 02:48:41;;;;;;;12.25;8.77;;;;;;;;;;5056135;28;20147;-76
2022/04/24 02:51:07;;;;;;;12.77;8.80;;;;;;;;;;5056306;28;20494;-76
2022/04/24 02:53:32;;;;;;;13.97;9.30;;;;;;;;;;5056196;28;20070;-75
2022/04/24 02:55:57;;;;;;;13.98;9.52;;;;;;;;;;5055931;28;20329;-75
2022/04/24 02:58:22;;;;;;;12.95;9.05;;;;;;;;;;5055864;28;20098;-76
2022/04/24 03:00:51;;;;;;;13.50;9.02;;;;;;;;;;5054541;28;20024;-75
2022/04/24 03:03:20;;;;;;;15.05;9.52;;;;;;;;;;5054516;28;20036;-76
2022/04/24 03:05:49;;;;;;;14.38;9.18;;;;;;;;;;5055742;28;20025;-76
2022/04/24 03:08:18;;;;;;;13.77;9.35;;;;;;;;;;5055516;28;20060;-75
2022/04/24 03:10:44;;;;;;;13.25;9.23;;;;;;;;;;5054301;28;20025;-76
2022/04/24 03:13:10;;;;;;;16.27;9.60;;;;;;;;;;5054216;28;20047;-76
2022/04/24 03:15:36;;;;;;;13.80;8.98;;;;;;;;;;5055873;28;20500;-76
2022/04/24 03:18:02;;;;;;;16.27;9.48;;;;;;;;;;5054216;28;20058;-75
2022/04/24 03:20:28;;;;;;;12.48;9.00;;;;;;;;;;5055811;28;20032;-76
2022/04/24 03:22:53;;;;;;;14.45;9.20;;;;;;;;;;5054085;28;20051;-76
2022/04/24 03:25:18;;;;;;;13.95;9.18;;;;;;;;;;5055478;28;20059;-76
2022/04/24 03:27:43;;;;;;;13.95;8.55;;;;;;;;;;5054567;28;20025;-76
2022/04/24 03:30:09;;;;;;;13.77;8.17;;;;;;;;;;5055445;28;20029;-77
2022/04/24 03:32:35;;;;;;;12.75;9.10;;;;;;;;;;5055312;28;20265;-76
2022/04/24 03:35:03;;;;;;;13.07;9.25;;;;;;;;;;5055450;28;20143;-77
2022/04/24 03:37:29;;;;;;;15.57;8.80;;;;;;;;;;5055175;28;20021;-76
2022/04/24 03:39:54;;;;;;;14.30;9.30;;;;;;;;;;5055076;28;20069;-76
2022/04/24 03:42:20;;;;;;;14.63;9.55;;;;;;;;;;5055033;28;20040;-77
2022/04/24 03:44:45;;;;;;;14.52;8.82;;;;;;;;;;5055064;28;20036;-76
2022/04/24 03:47:11;;;;;;;14.30;8.77;;;;;;;;;;5055309;28;20029;-76
2022/04/24 03:49:36;;;;;;;13.70;9.02;;;;;;;;;;5053675;28;20371;-76
2022/04/24 03:52:01;;;;;;;12.97;8.93;;;;;;;;;;5055140;28;20055;-76
2022/04/24 03:54:26;;;;;;;13.13;7.97;;;;;;;;;;5053558;28;20262;-76
2022/04/24 03:56:52;;;;;;;13.07;8.60;;;;;;;;;;5054697;28;20031;-76
2022/04/24 03:59:17;;;;;;;15.27;9.10;;;;;;;;;;5053342;28;20047;-76
2022/04/24 04:01:42;;;;;;;12.68;8.75;;;;;;;;;;5054665;28;20278;-75
2022/04/24 04:04:07;;;;;;;17.20;9.52;;;;;;;;;;5055066;28;20112;-76
2022/04/24 04:06:33;;;;;;;14.80;9.40;;;;;;;;;;5054893;28;20075;-76
2022/04/24 04:08:58;;;;;;;11.45;8.50;;;;;;;;;;5054500;28;20290;-76
2022/04/24 04:11:23;;;;;;;13.02;9.05;;;;;;;;;;5053187;28;20017;-76
2022/04/24 04:13:49;;;;;;;14.20;8.90;;;;;;;;;;5054380;28;20513;-76
2022/04/24 04:16:14;;;;;;;13.45;8.18;;;;;;;;;;5054350;28;20017;-76
2022/04/24 04:18:39;;;;;;;14.63;8.97;;;;;;;;;;5054581;28;20047;-76
2022/04/24 04:21:05;;;;;;;11.30;8.05;;;;;;;;;;5054189;28;20274;-77
2022/04/24 04:23:30;;;;;;;11.18;7.85;;;;;;;;;;5053056;28;20024;-76
2022/04/24 04:25:56;;;;;;;12.52;8.50;;;;;;;;;;5054217;28;20025;-76
2022/04/24 04:28:21;;;;;;;13.27;8.30;;;;;;;;;;5054102;28;20055;-76
2022/04/24 04:30:46;;;;;;;12.75;8.30;;;;;;;;;;5052860;28;20032;-76
2022/04/24 04:33:11;;;;;;;12.00;7.75;;;;;;;;;;5052958;28;20056;-76
2022/04/24 04:35:37;;;;;;;11.85;8.20;;;;;;;;;;5054322;28;20025;-76
2022/04/24 04:38:02;;;;;;;13.27;8.60;;;;;;;;;;5053943;28;20017;-75
2022/04/24 04:40:28;;;;;;;12.75;8.45;;;;;;;;;;5053918;28;20104;-76
2022/04/24 04:42:53;;;;;;;13.65;7.85;;;;;;;;;;5053944;28;20025;-76
2022/04/24 04:45:18;;;;;;;11.48;7.65;;;;;;;;;;5053851;28;20021;-76
2022/04/24 04:47:47;;;;;;;11.27;7.57;;;;;;;;;;5053868;28;20029;-77
2022/04/24 04:50:12;;;;;;;13.38;8.35;;;;;;;;;;5053818;28;20021;-76
2022/04/24 04:52:37;;;;;;;11.77;8.07;;;;;;;;;;5054114;28;20028;-77
2022/04/24 04:55:03;;;;;;;12.27;7.93;;;;;;;;;;5053810;28;20485;-77
2022/04/24 04:57:29;;;;;;;11.63;7.82;;;;;;;;;;5053745;28;20112;-77
2022/04/24 04:59:54;;;;;;;12.55;8.02;;;;;;;;;;5052793;28;20075;-77
2022/04/24 05:02:19;;;;;;;10.80;7.95;;;;;;;;;;5053968;28;20033;-77
2022/04/24 05:04:44;;;;;;;12.52;7.95;;;;;;;;;;5054075;28;20554;-76
2022/04/24 05:07:13;;;;;;;12.80;7.88;;;;;;;;;;5054140;28;20481;-77
2022/04/24 05:09:38;;;;;;;10.30;7.65;;;;;;;;;;5053400;28;20497;-76
2022/04/24 05:12:04;;;;;;;15.98;8.27;;;;;;;;;;5052190;28;20028;-76
2022/04/24 05:14:30;;;;;;;11.82;7.82;;;;;;;;;;5053262;28;20540;-76
2022/04/24 05:16:56;;;;;;;12.93;8.13;;;;;;;;;;5053981;28;20040;-76
2022/04/24 05:19:21;;;;;;;11.90;7.88;;;;;;;;;;5053753;28;20037;-75
2022/04/24 05:21:47;;;;;;;14.05;8.45;;;;;;;;;;5053354;28;20025;-75
2022/04/24 05:24:12;;;;;;;12.23;8.27;;;;;;;;;;5053521;28;20115;-76
2022/04/24 05:26:37;;;;;;;13.10;8.83;;;;;;;;;;5053410;28;20327;-76
2022/04/24 05:29:03;;;;;;;11.30;7.80;;;;;;;;;;5053127;28;20265;-76
2022/04/24 05:31:30;;;;;;;16.55;8.68;;;;;;;;;;5053511;28;20308;-76
2022/04/24 05:33:55;;;;;;;12.20;8.45;;;;;;;;;;5051890;28;20025;-76
2022/04/24 05:36:21;;;;;;;12.20;8.32;;;;;;;;;;5053156;28;20033;-76
2022/04/24 05:38:46;;;;;;;11.03;7.80;;;;;;;;;;5052989;28;20025;-77
2022/04/24 05:41:11;;;;;;;11.87;7.90;;;;;;;;;;5053016;28;20273;-76
2022/04/24 05:43:36;;;;;;;15.55;7.15;;;;;;;;;;5053109;28;20261;-76
2022/04/24 05:46:02;;;;;;;11.05;7.57;;;;;;;;;;5051838;28;20116;-76
2022/04/24 05:48:27;;;;;;;11.57;7.57;;;;;;;;;;5053027;28;20021;-76
2022/04/24 05:50:52;;;;;;;12.40;7.97;;;;;;;;;;5053411;28;20265;-76
2022/04/24 05:53:17;;;;;;;11.82;7.88;;;;;;;;;;5057128;28;20021;-76
2022/04/24 05:55:43;;;;;;;12.10;7.37;;;;;;;;;;5057555;28;20115;-77
2022/04/24 05:58:08;;;;;;;10.30;7.30;;;;;;;;;;5057029;28;20308;-77
2022/04/24 06:00:33;;;;;;;12.13;7.90;;;;;;;;;;5057132;28;20261;-76
2022/04/24 06:03:00;;;;;;;12.23;8.05;;;;;;;;;;5056998;28;20066;-77
2022/04/24 06:05:25;;;;;;;11.57;7.72;;;;;;;;;;5056858;28;20024;-76
2022/04/24 06:07:50;;;;;;;11.53;7.83;;;;;;;;;;5057642;28;20037;-75
2022/04/24 06:10:16;;;;;;;11.85;7.80;;;;;;;;;;5056619;28;20340;-76
2022/04/24 06:12:49;;;;;;;13.95;8.18;;;;;;;;;;5056803;28;20021;-77
2022/04/24 06:15:16;;;;;;;11.27;8.00;;;;;;;;;;5055445;28;20024;-76
2022/04/24 06:17:47;;;;;;;10.95;7.25;;;;;;;;;;5056167;28;20064;-77
2022/04/24 06:20:13;;;;;;;12.15;7.90;;;;;;;;;;5056847;28;20074;-77
2022/04/24 06:22:56;;;;;;;11.20;7.95;;;;;;;;;;5055386;28;20112;-76
2022/04/24 06:25:24;;;;;;;10.20;7.57;;;;;;;;;;5056730;28;20028;-76
2022/04/24 06:27:50;;;;;;;11.45;7.85;;;;;;;;;;5056635;28;20482;-76
2022/04/24 06:30:17;;;;;;;12.05;8.38;;;;;;;;;;5056451;28;20074;-76
2022/04/24 06:32:43;;;;;;;10.45;7.30;;;;;;;;;;5056587;28;20108;-76
2022/04/24 06:35:12;;;;;;;9.77;7.50;;;;;;;;;;5055276;28;20486;-76
2022/04/24 06:37:38;;;;;;;10.65;7.70;;;;;;;;;;5056718;28;20066;-77
2022/04/24 06:40:05;;;;;;;11.55;8.02;;;;;;;;;;5056360;28;20044;-77
2022/04/24 06:42:31;;;;;;;14.80;8.70;;;;;;;;;;5054994;28;20083;-77
2022/04/24 06:44:56;;;;;;;11.25;7.72;;;;;;;;;;5054997;28;20021;-76
2022/04/24 06:47:22;;;;;;;11.98;8.15;;;;;;;;;;5056135;28;20104;-76
2022/04/24 06:49:47;;;;;;;11.07;7.17;;;;;;;;;;5056139;28;20102;-76
2022/04/24 06:52:12;;;;;;;13.90;8.47;;;;;;;;;;5056266;28;20242;-76
2022/04/24 06:54:37;;;;;;;12.52;8.00;;;;;;;;;;5055623;28;20257;-75
2022/04/24 06:57:03;;;;;;;10.60;7.70;;;;;;;;;;5054559;28;20021;-76
2022/04/24 06:59:28;;;;;;;17.98;10.25;;;;;;;;;;5054744;28;20257;-76
2022/04/24 07:01:53;;;;;;;11.23;7.77;;;;;;;;;;5056166;28;20036;-77
2022/04/24 07:04:19;;;;;;;11.65;8.20;;;;;;;;;;5053216;28;20250;-76
2022/04/24 07:06:44;;;;;;;11.30;7.53;;;;;;;;;;5054591;28;20466;-76
2022/04/24 07:09:10;;;;;;;13.15;8.50;;;;;;;;;;5056169;28;20082;-76
2022/04/24 07:11:35;;;;;;;14.30;9.20;;;;;;;;;;5055922;28;20070;-76
2022/04/24 07:14:01;;;;;;;14.70;8.50;;;;;;;;;;5055732;28;20032;-76
2022/04/24 07:16:26;;;;;;;9.90;7.22;;;;;;;;;;5054418;28;20021;-75
2022/04/24 07:18:51;;;;;;;13.13;7.90;;;;;;;;;;5055892;28;20100;-77
2022/04/24 07:21:16;;;;;;;13.13;8.13;;;;;;;;;;5055500;28;20505;-76
2022/04/24 07:23:41;;;;;;;10.10;7.22;;;;;;;;;;5055571;28;20731;-76
2022/04/24 07:26:07;;;;;;;11.27;8.03;;;;;;;;;;5055430;28;20086;-76
2022/04/24 07:28:32;;;;;;;10.25;8.00;;;;;;;;;;5054038;28;20250;-76
2022/04/24 07:30:58;;;;;;;12.02;8.25;;;;;;;;;;5055404;28;20029;-77
2022/04/24 07:33:23;;;;;;;10.63;8.05;;;;;;;;;;5055510;28;20025;-76
2022/04/24 07:35:48;;;;;;;11.80;7.73;;;;;;;;;;5055871;28;20101;-76
2022/04/24 07:38:14;;;;;;;10.95;7.75;;;;;;;;;;5055525;28;20297;-76
2022/04/24 07:40:39;;;;;;;11.93;8.48;;;;;;;;;;5055326;28;20028;-77
2022/04/24 07:43:07;;;;;;;12.05;8.05;;;;;;;;;;5055357;28;20371;-77
2022/04/24 07:45:36;;;;;;;10.77;8.05;;;;;;;;;;5055171;28;20025;-76
2022/04/24 07:48:03;;;;;;;11.25;7.47;;;;;;;;;;5053683;28;20025;-76
2022/04/24 07:50:30;;;;;;;12.27;8.13;;;;;;;;;;5055031;28;20036;-76
2022/04/24 07:52:57;;;;;;;13.65;8.18;;;;;;;;;;5055240;28;20024;-76
2022/04/24 07:55:23;;;;;;;13.50;8.13;;;;;;;;;;5055043;28;20108;-76
2022/04/24 07:57:50;;;;;;;17.08;9.57;;;;;;;;;;5053871;28;20048;-77
2022/04/24 08:00:16;;;;;;;12.05;8.73;;;;;;;;;;5055022;28;20120;-77
2022/04/24 08:02:46;;;;;;;13.65;9.30;;;;;;;;;;5053325;28;20071;-76
2022/04/24 08:05:17;;;;;;;17.75;10.13;;;;;;;;;;5054619;28;20418;-77
2022/04/24 08:07:42;;;;;;;13.15;8.82;;;;;;;;;;5054981;28;20469;-77
2022/04/24 08:10:08;;;;;;;16.43;9.77;;;;;;;;;;5055191;28;20039;-76
2022/04/24 08:12:33;;;;;;;13.75;9.20;;;;;;;;;;5054804;28;20257;-77
2022/04/24 08:14:58;;;;;;;15.10;10.13;;;;;;;;;;5053949;28;20087;-76
2022/04/24 08:17:23;;;;;;;15.37;9.37;;;;;;;;;;5055129;28;20395;-76
2022/04/24 08:19:48;;;;;;;17.13;9.07;;;;;;;;;;5054330;28;20262;-77
2022/04/24 08:22:14;;;;;;;16.63;9.40;;;;;;;;;;5054684;28;20425;-77
2022/04/24 08:24:39;;;;;;;12.67;8.77;;;;;;;;;;5054245;28;20669;-75
2022/04/24 08:27:04;;;;;;;14.43;9.00;;;;;;;;;;5054506;28;20670;-77
2022/04/24 08:29:29;;;;;;;17.20;10.02;;;;;;;;;;5053026;28;20662;-76
2022/04/24 08:31:55;;;;;;;12.67;8.70;;;;;;;;;;5054289;28;20113;-77
2022/04/24 08:34:20;;;;;;;13.83;9.70;;;;;;;;;;5054437;28;20290;-76
2022/04/24 08:36:45;;;;;;;20.50;8.37;;;;;;;;;;5054414;28;20277;-77
2022/04/24 08:39:11;;;;;;;10.38;6.93;;;;;;;;;;5054326;28;20250;-77
2022/04/24 08:41:39;;;;;;;12.27;8.18;;;;;;;;;;5054169;28;20024;-76
2022/04/24 08:44:07;;;;;;;12.02;8.57;;;;;;;;;;5052764;28;20029;-76
2022/04/24 08:46:32;;;;;;;12.77;7.65;;;;;;;;;;5052657;28;20025;-76
2022/04/24 08:48:59;;;;;;;10.07;6.33;;;;;;;;;;5053895;28;20504;-77
2022/04/24 08:51:25;;;;;;;10.93;6.20;;;;;;;;;;5054017;28;20269;-76
2022/04/24 08:53:52;;;;;;;8.18;5.75;;;;;;;;;;5053753;28;20025;-77
2022/04/24 08:56:17;;;;;;;7.05;5.30;;;;;;;;;;5053763;28;20457;-76
2022/04/24 08:58:43;;;;;;;8.60;4.80;;;;;;;;;;5054251;28;20052;-78
2022/04/24 09:01:08;;;;;;;6.53;4.13;;;;;;;;;;5053931;28;20313;-77
2022/04/24 09:03:33;;;;;;;7.78;5.07;;;;;;;;;;5053884;28;20024;-77
2022/04/24 09:05:58;;;;;;;6.07;4.47;;;;;;;;;;5053882;28;20482;-77
2022/04/24 09:08:24;;;;;;;9.07;5.80;;;;;;;;;;5054372;28;20743;-77
2022/04/24 09:10:58;;;;;;;8.82;4.80;;;;;;;;;;5052241;28;20751;-76
2022/04/24 09:13:32;;;;;;;8.15;4.90;;;;;;;;;;5053850;28;20032;-76
2022/04/24 09:15:59;;;;;;;8.02;5.57;;;;;;;;;;5053546;28;20028;-77
2022/04/24 09:18:39;;;;;;;10.02;6.55;;;;;;;;;;5052191;28;20017;-76
2022/04/24 09:21:04;;;;;;;6.47;4.72;;;;;;;;;;5051962;28;20058;-76
2022/04/24 09:23:34;;;;;;;5.07;4.07;;;;;;;;;;5053266;28;20025;-76
2022/04/24 09:25:59;;;;;;;7.63;5.05;;;;;;;;;;5052773;28;20056;-76
2022/04/24 09:28:35;;;;;;;8.38;5.22;;;;;;;;;;5053184;28;20063;-77
2022/04/24 09:31:04;;;;;;;8.95;5.93;;;;;;;;;;5053491;28;20112;-76
2022/04/24 09:33:40;;;;;;;18.80;6.85;;;;;;;;;;5053255;28;20097;-77
2022/04/24 09:36:06;;;;;;;10.02;6.30;;;;;;;;;;5051853;28;20482;-77
2022/04/24 09:38:39;;;;;;;9.20;6.05;;;;;;;;;;5053634;28;20426;-77
2022/04/24 09:41:13;;;;;;;6.95;4.32;;;;;;;;;;5053326;28;20021;-77
2022/04/24 09:43:40;;;;;;;;;;;;;;;;;;5052266;28;20127;-77
2022/04/24 09:46:05;;;;;;;9.18;6.13;;;;;;;;;;5053297;28;19916;-76
2022/04/24 09:48:31;;;;;;;6.72;5.03;;;;;;;;;;5053002;28;20375;-76
2022/04/24 09:50:58;;;;;;;8.53;5.83;;;;;;;;;;5052989;28;20033;-76
2022/04/24 09:53:25;;;;;;;9.18;6.43;;;;;;;;;;5052608;28;20258;-77
2022/04/24 09:55:50;;;;;;;10.75;5.97;;;;;;;;;;5051120;28;20370;-77
2022/04/24 09:58:16;;;;;;;13.97;6.83;;;;;;;;;;5051562;28;20032;-78
2022/04/24 10:00:42;;;;;;;8.65;5.70;;;;;;;;;;5053244;28;20285;-77
2022/04/24 10:03:09;;;;;;;9.38;6.15;;;;;;;;;;5052937;28;20022;-77
2022/04/24 10:05:38;;;;;;;9.05;5.72;;;;;;;;;;5052798;28;20371;-77
2022/04/24 10:08:05;;;;;;;7.60;4.93;;;;;;;;;;5052774;28;20020;-78
2022/04/24 10:10:31;;;;;;;9.38;6.78;;;;;;;;;;5052690;28;20063;-76
2022/04/24 10:13:00;;;;;;;8.15;6.15;;;;;;;;;;5050023;28;20052;-77
2022/04/24 10:15:27;;;;;;;9.07;6.68;;;;;;;;;;5053572;28;20483;-77
2022/04/24 10:17:57;;;;;;;13.45;6.80;;;;;;;;;;5052297;28;20029;-77
2022/04/24 10:20:49;;;;;;;8.32;5.88;;;;;;;;;;5051721;28;20021;-77
2022/04/24 10:23:15;;;;;;;10.48;6.50;;;;;;;;;;5051907;28;20075;-77
2022/04/24 10:25:42;;;;;;;10.70;5.93;;;;;;;;;;5052921;28;20029;-77
2022/04/24 10:28:11;;;;;;;9.70;6.72;;;;;;;;;;5053274;28;20025;-78
2022/04/24 10:30:37;;;;;;;8.27;6.05;;;;;;;;;;5052423;28;20048;-78
2022/04/24 10:33:17;;;;;;;6.15;4.53;;;;;;;;;;5052977;28;20482;-78
2022/04/24 10:35:53;;;;;;;9.10;5.15;;;;;;;;;;5053136;28;20493;-77
2022/04/24 10:38:22;;;;;;;8.73;5.10;;;;;;;;;;5055279;28;20032;-77
2022/04/24 10:41:03;;;;;;;8.27;5.88;;;;;;;;;;5055006;28;20394;-77
2022/04/24 10:43:51;;;;;;;10.65;5.63;;;;;;;;;;5054964;28;20024;-76
2022/04/24 10:46:33;;;;;;;6.38;4.78;;;;;;;;;;5056176;28;20040;-78
2022/04/24 10:49:11;;;;;;;6.53;3.67;;;;;;;;;;5056151;28;20017;-78
2022/04/24 10:51:38;;;;;;;6.75;4.47;;;;;;;;;;5056248;28;20390;-77
2022/04/24 10:54:08;;;;;;;5.55;4.18;;;;;;;;;;5054705;28;20024;-76
2022/04/24 10:56:36;;;;;;;7.93;4.65;;;;;;;;;;5056343;28;20063;-78
2022/04/24 10:59:12;;;;;;;8.73;6.05;;;;;;;;;;5055891;28;20096;-77
2022/04/24 11:01:43;;;;;;;7.43;5.30;;;;;;;;;;5054749;28;20025;-78
2022/04/24 11:04:11;;;;;;;6.25;3.38;;;;;;;;;;5054992;28;20407;-77
2022/04/24 11:06:37;;;;;;;6.43;5.00;;;;;;;;;;5056057;28;20043;-76
2022/04/24 11:09:06;;;;;;;7.05;5.45;;;;;;;;;;5054391;28;20078;-77
2022/04/24 11:11:33;;;;;;;6.50;5.10;;;;;;;;;;5055629;28;20031;-76
2022/04/24 11:14:01;;;;;;;7.13;4.35;;;;;;;;;;5055411;28;20383;-77
2022/04/24 11:16:26;;;;;;;7.35;5.53;;;;;;;;;;5054471;28;20405;-77
2022/04/24 11:18:52;;;;;;;15.73;8.05;;;;;;;;;;5055490;28;20029;-76
2022/04/24 11:21:19;;;;;;;21.17;9.25;;;;;;;;;;5055423;28;20036;-77
2022/04/24 11:23:45;;;;;;;8.68;5.78;;;;;;;;;;5055569;28;20078;-77
2022/04/24 11:26:12;;;;;;;11.20;7.53;;;;;;;;;;5055953;28;20017;-77
2022/04/24 11:28:40;;;;;;;10.30;7.18;;;;;;;;;;5055388;28;20029;-77
2022/04/24 11:31:10;;;;;;;14.82;7.70;;;;;;;;;;5053368;28;20505;-79
2022/04/24 11:33:37;;;;;;;13.40;8.57;;;;;;;;;;5055526;28;20482;-77
2022/04/24 11:36:06;;;;;;;8.75;5.20;;;;;;;;;;5055759;28;20037;-78
2022/04/24 11:38:32;;;;;;;10.35;7.63;;;;;;;;;;5053909;28;20059;-77
2022/04/24 11:41:02;;;;;;;8.98;5.57;;;;;;;;;;5053927;28;20123;-76
2022/04/24 11:43:28;;;;;;;10.52;7.15;;;;;;;;;;5054802;28;20017;-77
2022/04/24 11:51:22;;;;;;;12.50;5.88;;;;;;;;;;5055702;28;20116;-76
2022/04/24 11:53:48;;;;;;;8.95;6.45;;;;;;;;;;5053588;28;20024;-77
2022/04/24 11:56:15;;;;;;;10.52;7.47;;;;;;;;;;5055119;28;20588;-77
2022/04/24 11:58:43;;;;;;;9.40;6.72;;;;;;;;;;5054695;28;20025;-76
2022/04/24 12:01:11;;;;;;;7.72;4.88;;;;;;;;;;5054984;28;20028;-77
2022/04/24 12:03:37;;;;;;;8.10;5.60;;;;;;;;;;5054660;28;20033;-77
2022/04/24 12:06:04;;;;;;;14.45;7.30;;;;;;;;;;5054668;28;20477;-77
2022/04/24 12:08:48;;;;;;;10.45;7.70;;;;;;;;;;5054753;28;20033;-78
2022/04/24 12:11:30;;;;;;;11.77;7.17;;;;;;;;;;5054976;28;20021;-78
2022/04/24 12:14:06;;;;;;;10.30;7.30;;;;;;;;;;5053593;28;20021;-78
2022/04/24 12:16:32;;;;;;;9.50;6.70;;;;;;;;;;5054799;28;20024;-76
2022/04/24 12:18:59;;;;;;;11.07;8.00;;;;;;;;;;5054430;28;20040;-76
2022/04/24 12:21:25;;;;;;;11.93;7.88;;;;;;;;;;5053099;28;20508;-76
2022/04/24 12:23:52;;;;;;;11.57;7.40;;;;;;;;;;5054373;28;20163;-77
2022/04/24 12:26:21;;;;;;;10.63;7.38;;;;;;;;;;5054173;28;20108;-76
2022/04/24 12:28:47;;;;;;;9.70;6.75;;;;;;;;;;5054218;28;20021;-76
2022/04/24 12:31:24;;;;;;;14.13;7.30;;;;;;;;;;5054127;28;20021;-77
2022/04/24 12:33:54;;;;;;;12.88;7.68;;;;;;;;;;5053490;28;20029;-77
2022/04/24 12:36:20;;;;;;;11.02;8.13;;;;;;;;;;5052212;28;20031;-76
2022/04/24 12:39:00;;;;;;;11.55;8.52;;;;;;;;;;5053933;28;20104;-77
2022/04/24 12:41:28;;;;;;;12.68;8.55;;;;;;;;;;5052602;28;20039;-77
2022/04/24 12:43:57;;;;;;;11.77;9.02;;;;;;;;;;5054351;28;20108;-77
2022/04/24 12:46:22;;;;;;;13.00;9.18;;;;;;;;;;5054382;28;20024;-77
2022/04/24 12:48:49;;;;;;;13.65;10.18;;;;;;;;;;5052444;28;20051;-76
2022/04/24 12:51:15;;;;;;;15.45;9.88;;;;;;;;;;5054135;28;20029;-77
2022/04/24 12:53:41;;;;;;;16.25;9.73;;;;;;;;;;5054077;28;20428;-77
2022/04/24 12:56:07;;;;;;;17.15;11.20;;;;;;;;;;5052521;28;20032;-76
2022/04/24 12:58:32;;;;;;;15.35;10.65;;;;;;;;;;5054120;28;20052;-76
2022/04/24 13:00:58;;;;;;;14.52;10.52;;;;;;;;;;5053353;28;20073;-76
2022/04/24 13:03:24;;;;;;;14.45;9.98;;;;;;;;;;5053360;28;20078;-76
2022/04/24 13:05:49;;;;;;;13.88;10.50;;;;;;;;;;5053573;28;20483;-77
2022/04/24 13:08:15;;;;;;;14.95;10.75;;;;;;;;;;5053391;28;20025;-76
2022/04/24 13:10:40;;;;;;;15.25;10.68;;;;;;;;;;5053377;28;20624;-77
2022/04/24 13:13:05;;;;;;;21.70;12.75;;;;;;;;;;5053338;28;20029;-76
2022/04/24 13:15:33;;;;;;;23.90;15.07;;;;;;;;;;5053441;28;20509;-77
2022/04/24 13:18:08;;;;;;;21.40;14.07;;;;;;;;;;5051912;28;20090;-76
2022/04/24 13:20:42;;;;;;;19.63;12.75;;;;;;;;;;5051936;28;20055;-76
2022/04/24 13:23:09;;;;;;;;;;;;;;;;;;5053467;28;20115;-76
2022/04/24 13:25:35;;;;;;;8.93;6.13;;;;;;;;;;5053520;28;19966;-77
2022/04/24 13:28:02;;;;;;;10.73;7.75;;;;;;;;;;5053152;28;20098;-77
2022/04/24 13:30:27;;;;;;;10.15;6.78;;;;;;;;;;5053538;28;20024;-77
2022/04/24 13:32:52;;;;;;;10.57;7.47;;;;;;;;;;5053018;28;20017;-77
2022/04/24 13:35:18;;;;;;;11.65;6.13;;;;;;;;;;5051741;28;20021;-77
2022/04/24 13:40:29;;;;;;;11.63;7.22;;;;;;;;;;5053551;28;20028;-77
2022/04/24 13:42:55;;;;;;;10.95;7.68;;;;;;;;;;5051605;28;20063;-77
2022/04/24 13:45:20;;;;;;;12.18;7.03;;;;;;;;;;5053115;28;20030;-77
2022/04/24 13:47:45;;;;;;;10.13;6.43;;;;;;;;;;5051922;28;20040;-77
2022/04/24 13:50:11;;;;;;;17.70;7.15;;;;;;;;;;5053215;28;20270;-76
2022/04/24 13:52:36;;;;;;;12.70;7.28;;;;;;;;;;5051687;28;20025;-76
2022/04/24 13:55:01;;;;;;;6.80;5.17;;;;;;;;;;5052796;28;20025;-77
2022/04/24 13:57:26;;;;;;;8.88;6.40;;;;;;;;;;5053046;28;20265;-77
2022/04/24 13:59:52;;;;;;;7.53;5.30;;;;;;;;;;5051955;28;20031;-77
2022/04/24 14:02:17;;;;;;;9.07;5.77;;;;;;;;;;5053282;28;20373;-77
2022/04/24 14:04:42;;;;;;;7.88;5.78;;;;;;;;;;5051666;28;20320;-77
2022/04/24 14:07:08;;;;;;;12.30;4.47;;;;;;;;;;5053203;28;20029;-77
2022/04/24 14:09:34;;;;;;;10.63;5.75;;;;;;;;;;5052659;28;20277;-76
2022/04/24 14:12:12;;;;;;;8.13;5.50;;;;;;;;;;5053108;28;20025;-77
2022/04/24 14:14:37;;;;;;;6.80;5.68;;;;;;;;;;5054985;28;20517;-76
2022/04/24 14:17:14;;;;;;;7.97;4.47;;;;;;;;;;5056804;28;20029;-77
2022/04/24 14:19:39;;;;;;;9.23;5.72;;;;;;;;;;5056690;28;20032;-76
2022/04/24 14:22:05;;;;;;;11.23;5.82;;;;;;;;;;5056839;28;20018;-77
2022/04/24 14:24:30;;;;;;;12.65;6.32;;;;;;;;;;5055454;28;20025;-76
2022/04/24 14:26:55;;;;;;;8.05;5.88;;;;;;;;;;5056632;28;20024;-77
2022/04/24 14:29:24;;;;;;;17.35;6.15;;;;;;;;;;5056889;28;20401;-77
2022/04/24 14:31:49;;;;;;;11.55;7.13;;;;;;;;;;5055233;28;20024;-76
2022/04/24 14:34:15;;;;;;;10.48;6.60;;;;;;;;;;5056363;28;20025;-76
2022/04/24 14:36:41;;;;;;;9.75;6.90;;;;;;;;;;5056763;28;20032;-78
2022/04/24 14:39:07;;;;;;;16.60;8.02;;;;;;;;;;5056145;28;20099;-77